Time;durP1;ratioP1;P1;durP2;ratioP2;P2;SDS_P1;SDS_P2;PMS_P1;PMS_P2;Temp;Humidity;BMP_temperature;BMP_pressure;BME280_temperature;BME280_humidity;BME280_pressure;Samples;Min_cycle;Max_cycle;Signal;HPM_P1;HPM_P2
2021/11/17 02:28:12;;;;;;;49.45;22.85;;;6.80;67.40;;;;;;5036843;28;20441;-78
2021/11/17 02:30:37;;;;;;;53.60;22.88;;;6.70;68.70;;;;;;5037790;28;20437;-80
2021/11/17 02:33:09;;;;;;;50.83;22.63;;;6.80;68.80;;;;;;5053319;28;20792;-78
2021/11/17 02:35:59;;;;;;;47.53;22.30;;;6.80;69.70;;;;;;5041515;28;20391;-78
2021/11/17 02:38:27;;;;;;;47.53;22.17;;;6.80;70.20;;;;;;5035659;28;20396;-77
2021/11/17 02:41:06;;;;;;;53.03;23.52;;;6.90;65.80;;;;;;5033032;28;20395;-77
2021/11/17 02:43:48;;;;;;;48.95;21.92;;;6.90;65.80;;;;;;5037386;28;20452;-78
2021/11/17 02:46:40;;;;;;;52.42;24.02;;;6.90;65.50;;;;;;5025863;28;20419;-78
2021/11/17 02:49:28;;;;;;;54.72;23.88;;;6.90;67.20;;;;;;5028053;28;20408;-78
2021/11/17 02:52:19;;;;;;;53.75;23.65;;;6.80;70.70;;;;;;5045797;28;20381;-77
2021/11/17 02:55:22;;;;;;;56.15;23.55;;;6.90;70.70;;;;;;5055948;28;20386;-79
2021/11/17 02:58:03;;;;;;;56.17;22.73;;;6.80;70.20;;;;;;5032894;28;20441;-77
2021/11/17 03:00:53;;;;;;;50.93;24.20;;;6.90;69.70;;;;;;5033076;28;20385;-78
2021/11/17 03:03:40;;;;;;;50.42;23.63;;;6.90;68.20;;;;;;5023936;28;20810;-78
2021/11/17 03:06:16;;;;;;;52.00;24.42;;;6.90;70.00;;;;;;5027790;28;20454;-79
2021/11/17 03:09:20;;;;;;;53.58;25.83;;;6.90;70.50;;;;;;5042059;28;20451;-78
2021/11/17 03:12:04;;;;;;;54.37;24.30;;;6.90;70.90;;;;;;5037466;28;20378;-78
2021/11/17 03:14:45;;;;;;;54.95;24.10;;;6.80;71.40;;;;;;5044781;28;20397;-78
2021/11/17 03:17:41;;;;;;;48.58;23.27;;;6.90;70.00;;;;;;5047597;28;20446;-79
2021/11/17 03:20:20;;;;;;;53.20;23.92;;;6.90;68.90;;;;;;5024658;28;20426;-79
2021/11/17 03:22:58;;;;;;;51.80;24.77;;;7.00;69.40;;;;;;5029484;28;20393;-78
2021/11/17 03:25:29;;;;;;;49.47;24.23;;;6.90;67.00;;;;;;5036651;28;20442;-78
2021/11/17 03:28:19;;;;;;;53.05;23.90;;;6.90;67.50;;;;;;5024582;28;20397;-79
2021/11/17 03:30:45;;;;;;;50.45;23.83;;;6.90;69.00;;;;;;5050474;28;20428;-78
2021/11/17 03:33:32;;;;;;;57.03;25.23;;;7.00;67.80;;;;;;5060889;28;20385;-79
2021/11/17 03:36:07;;;;;;;54.90;26.88;;;6.90;68.80;;;;;;5065821;28;20436;-78
2021/11/17 03:38:38;;;;;;;50.80;24.45;;;6.90;69.80;;;;;;5043131;28;20470;-79
2021/11/17 03:41:41;;;;;;;53.15;25.13;;;6.90;71.20;;;;;;5042093;28;20391;-78
2021/11/17 03:44:22;;;;;;;56.08;25.55;;;6.90;72.00;;;;;;5020286;28;20444;-79
2021/11/17 03:47:12;;;;;;;57.97;25.13;;;7.10;68.80;;;;;;5058803;28;20398;-79
2021/11/17 03:49:50;;;;;;;57.15;25.30;;;7.00;70.00;;;;;;5023342;28;20388;-79
2021/11/17 03:52:28;;;;;;;53.38;25.13;;;7.00;70.70;;;;;;5030013;28;20385;-79
2021/11/17 03:55:03;;;;;;;56.83;23.90;;;7.00;69.40;;;;;;5041811;28;20390;-79
2021/11/17 03:57:28;;;;;;;50.95;23.88;;;7.10;69.20;;;;;;5056385;28;20710;-79
2021/11/17 04:00:25;;;;;;;59.50;24.77;;;7.00;69.20;;;;;;5069878;28;20449;-79
2021/11/17 04:03:03;;;;;;;51.92;22.85;;;7.10;68.70;;;;;;5038669;28;20433;-78
2021/11/17 04:05:43;;;;;;;53.72;23.42;;;7.00;70.20;;;;;;5057767;28;20450;-79
2021/11/17 04:08:35;;;;;;;55.27;24.00;;;7.00;71.50;;;;;;5050968;28;20426;-79
2021/11/17 04:11:16;;;;;;;53.00;23.17;;;7.00;71.30;;;;;;5031511;28;20397;-77
2021/11/17 04:14:00;;;;;;;50.93;22.40;;;7.00;71.00;;;;;;5035911;28;20471;-79
2021/11/17 04:16:58;;;;;;;48.00;21.92;;;7.10;68.60;;;;;;5047216;28;20641;-78
2021/11/17 04:19:48;;;;;;;43.08;20.17;;;7.20;66.60;;;;;;5039891;28;20381;-77
2021/11/17 04:22:33;;;;;;;52.27;22.77;;;7.20;67.60;;;;;;5035970;28;20800;-78
2021/11/17 04:25:09;;;;;;;49.47;22.33;;;7.10;69.60;;;;;;5034873;28;20435;-77
2021/11/17 04:27:54;;;;;;;47.75;22.90;;;7.20;68.70;;;;;;5046128;28;20418;-79
2021/11/17 04:30:34;;;;;;;49.50;22.70;;;7.10;70.20;;;;;;5042725;28;20401;-78
2021/11/17 04:33:05;;;;;;;45.30;22.20;;;7.10;68.70;;;;;;5031762;28;20403;-79
2021/11/17 04:35:49;;;;;;;46.97;22.00;;;7.20;67.90;;;;;;5057096;28;20401;-78
2021/11/17 04:38:39;;;;;;;50.33;22.15;;;7.10;70.10;;;;;;5036390;28;20414;-78
2021/11/17 04:41:35;;;;;;;45.20;20.20;;;7.20;69.70;;;;;;5037933;28;20408;-78
2021/11/17 04:44:24;;;;;;;46.70;20.98;;;7.30;67.40;;;;;;5037655;28;20429;-80
2021/11/17 04:47:09;;;;;;;44.78;20.42;;;7.30;66.20;;;;;;5060267;28;20913;-78
2021/11/17 04:50:00;;;;;;;48.38;20.70;;;7.40;65.40;;;;;;5046330;28;20418;-79
2021/11/17 04:52:50;;;;;;;48.70;21.63;;;7.30;66.70;;;;;;5066634;28;20410;-78
2021/11/17 04:55:51;;;;;;;50.15;21.98;;;7.20;69.70;;;;;;5074185;28;20420;-78
2021/11/17 04:58:42;;;;;;;52.55;22.75;;;7.30;69.70;;;;;;5037432;28;20752;-79
2021/11/17 05:01:30;;;;;;;49.77;21.33;;;7.20;70.70;;;;;;5053833;28;20379;-77
2021/11/17 05:04:12;;;;;;;47.50;22.55;;;7.20;69.30;;;;;;5036981;28;21219;-79
2021/11/17 05:06:40;;;;;;;44.83;20.92;;;7.20;70.10;;;;;;5019997;28;20421;-78
2021/11/17 05:09:24;;;;;;;47.30;21.10;;;7.20;71.80;;;;;;5037354;28;20404;-78
2021/11/17 05:12:00;;;;;;;49.53;21.20;;;7.20;69.20;;;;;;5028670;28;20425;-79
2021/11/17 05:14:37;;;;;;;53.50;21.80;;;7.20;70.70;;;;;;5038018;28;20897;-78
2021/11/17 05:17:15;;;;;;;46.25;20.80;;;7.20;72.10;;;;;;5034750;28;20401;-77
2021/11/17 05:20:10;;;;;;;48.58;23.35;;;7.20;71.70;;;;;;5035084;28;20389;-78
2021/11/17 05:22:36;;;;;;;45.28;21.45;;;7.20;71.20;;;;;;5048078;28;20400;-79
2021/11/17 05:25:17;;;;;;;44.08;21.42;;;7.20;70.50;;;;;;5060898;28;20415;-77
2021/11/17 05:27:55;;;;;;;47.83;20.83;;;7.30;69.70;;;;;;5024966;28;21014;-78
2021/11/17 05:30:20;;;;;;;46.80;21.60;;;7.30;69.10;;;;;;5054648;28;20897;-78
2021/11/17 05:32:58;;;;;;;49.63;21.87;;;7.30;69.60;;;;;;5054989;28;20401;-78
2021/11/17 05:35:46;;;;;;;49.45;22.00;;;7.30;70.40;;;;;;5022807;28;20559;-79
2021/11/17 05:38:29;;;;;;;47.20;21.48;;;7.40;68.90;;;;;;5024966;28;20449;-79
2021/11/17 05:41:23;;;;;;;45.95;21.52;;;7.30;69.80;;;;;;5040754;28;20409;-78
2021/11/17 05:44:16;;;;;;;48.53;21.98;;;7.30;67.90;;;;;;5036432;28;20436;-78
2021/11/17 05:47:12;;;;;;;48.80;21.35;;;7.30;67.80;;;;;;5041406;28;20455;-78
2021/11/17 05:49:55;;;;;;;52.30;23.20;;;7.30;68.40;;;;;;5035394;28;20802;-79
2021/11/17 05:52:46;;;;;;;48.33;21.88;;;7.30;70.60;;;;;;5035724;28;20365;-77
2021/11/17 05:55:22;;;;;;;45.67;21.88;;;7.30;71.10;;;;;;5051867;28;20435;-78
2021/11/17 05:58:13;;;;;;;49.15;21.30;;;7.30;70.70;;;;;;5019654;28;20389;-78
2021/11/17 06:00:57;;;;;;;47.65;22.20;;;7.40;70.20;;;;;;5027845;28;20391;-81
2021/11/17 06:03:40;;;;;;;47.53;20.95;;;7.40;70.50;;;;;;5060812;28;20467;-78
2021/11/17 06:06:06;;;;;;;48.72;21.52;;;7.40;70.00;;;;;;5045311;28;20419;-76
2021/11/17 06:08:32;;;;;;;46.10;20.67;;;7.30;71.00;;;;;;5037691;28;20469;-76
2021/11/17 06:11:01;;;;;;;43.78;20.98;;;7.30;71.40;;;;;;5019058;28;20391;-78
2021/11/17 06:13:27;;;;;;;47.17;23.02;;;7.40;70.40;;;;;;5034986;28;20379;-78
2021/11/17 06:15:54;;;;;;;46.30;22.50;;;7.30;69.90;;;;;;5020747;28;20452;-78
2021/11/17 06:18:24;;;;;;;47.13;21.08;;;7.30;70.40;;;;;;5021766;28;20414;-78
2021/11/17 06:20:51;;;;;;;44.15;22.48;;;7.30;70.90;;;;;;5038956;28;20474;-78
2021/11/17 06:23:24;;;;;;;48.90;21.70;;;7.30;72.80;;;;;;5030058;28;20401;-79
2021/11/17 06:25:51;;;;;;;43.70;20.95;;;7.40;70.80;;;;;;5050230;28;20517;-78
2021/11/17 06:28:20;;;;;;;45.42;21.75;;;7.40;70.50;;;;;;5047553;28;20398;-78
2021/11/17 06:30:46;;;;;;;50.08;23.30;;;7.30;71.30;;;;;;5042093;28;20399;-79
2021/11/17 06:33:11;;;;;;;48.40;22.13;;;7.40;70.80;;;;;;5047939;28;20782;-78
2021/11/17 06:35:40;;;;;;;45.47;22.30;;;7.30;72.40;;;;;;5044768;28;20450;-80
2021/11/17 06:38:07;;;;;;;44.60;21.35;;;7.30;72.70;;;;;;5049463;28;20403;-79
2021/11/17 06:40:34;;;;;;;44.85;21.77;;;7.30;73.20;;;;;;5023158;28;20473;-78
2021/11/17 06:43:04;;;;;;;42.83;21.10;;;7.30;72.40;;;;;;5061859;28;20397;-78
2021/11/17 06:45:35;;;;;;;44.93;20.93;;;7.30;73.20;;;;;;5055547;28;20411;-77
2021/11/17 06:48:01;;;;;;;44.42;20.55;;;7.30;73.40;;;;;;5063947;28;20410;-78
2021/11/17 06:50:27;;;;;;;40.78;20.65;;;7.30;73.20;;;;;;5073300;28;20470;-77
2021/11/17 06:52:52;;;;;;;45.58;20.08;;;7.30;73.10;;;;;;5063003;28;20373;-78
2021/11/17 06:55:18;;;;;;;40.30;20.07;;;7.40;71.50;;;;;;5060077;28;20405;-75
2021/11/17 06:57:45;;;;;;;40.97;19.20;;;7.50;70.50;;;;;;5054700;28;20393;-76
2021/11/17 07:00:17;;;;;;;36.88;19.10;;;7.50;69.30;;;;;;5049116;28;20944;-79
2021/11/17 07:02:43;;;;;;;35.40;18.00;;;7.60;66.80;;;;;;5056578;28;20421;-75
2021/11/17 07:05:09;;;;;;;35.70;18.60;;;7.60;66.70;;;;;;5027208;28;20971;-77
2021/11/17 07:07:35;;;;;;;42.38;19.25;;;7.60;67.10;;;;;;5064970;28;20486;-77
2021/11/17 07:10:02;;;;;;;39.78;19.90;;;7.60;66.10;;;;;;5060538;28;20398;-76
2021/11/17 07:12:28;;;;;;;39.67;19.33;;;7.60;67.40;;;;;;5028709;28;20918;-77
2021/11/17 07:14:53;;;;;;;39.07;19.53;;;7.60;68.00;;;;;;5069257;28;20464;-76
2021/11/17 07:17:19;;;;;;;36.87;18.03;;;7.60;67.90;;;;;;5056326;28;20919;-77
2021/11/17 07:19:45;;;;;;;39.60;18.80;;;7.60;67.30;;;;;;5051905;28;20401;-77
2021/11/17 07:22:11;;;;;;;32.43;17.57;;;7.60;66.80;;;;;;5055269;28;20431;-77
2021/11/17 07:24:38;;;;;;;38.28;18.02;;;7.50;66.80;;;;;;5064198;28;20447;-77
2021/11/17 07:27:05;;;;;;;37.78;18.42;;;7.50;67.60;;;;;;5070369;28;20401;-78
2021/11/17 07:29:31;;;;;;;38.10;18.52;;;7.60;66.90;;;;;;5054606;28;20380;-73
2021/11/17 07:31:57;;;;;;;36.80;19.17;;;7.60;68.00;;;;;;5049622;28;20401;-72
2021/11/17 07:34:23;;;;;;;38.13;17.77;;;7.70;66.80;;;;;;5040102;28;20425;-79
2021/11/17 07:36:50;;;;;;;35.35;18.10;;;7.80;65.70;;;;;;5067319;28;20399;-80
2021/11/17 07:39:17;;;;;;;39.00;18.60;;;7.80;65.60;;;;;;5077218;28;20471;-76
2021/11/17 07:41:51;;;;;;;31.52;18.15;;;7.90;65.60;;;;;;5056516;28;20400;-78
2021/11/17 07:44:21;;;;;;;31.20;16.67;;;8.00;63.90;;;;;;5057495;28;20506;-77
2021/11/17 07:46:49;;;;;;;34.88;17.45;;;8.00;64.50;;;;;;5055689;28;20399;-78
2021/11/17 07:49:15;;;;;;;37.25;17.35;;;8.10;63.30;;;;;;5056711;28;20401;-77
2021/11/17 07:51:41;;;;;;;34.42;16.70;;;8.20;62.20;;;;;;5079981;28;20407;-77
2021/11/17 07:54:08;;;;;;;38.05;17.73;;;8.20;61.70;;;;;;5067917;28;20391;-78
2021/11/17 07:56:36;;;;;;;33.03;17.42;;;8.40;59.70;;;;;;5047568;28;20389;-79
2021/11/17 07:59:04;;;;;;;29.73;16.50;;;8.50;60.10;;;;;;5068513;28;20386;-77
2021/11/17 08:01:29;;;;;;;28.20;16.10;;;8.60;56.60;;;;;;5057529;28;20389;-76
2021/11/17 08:03:55;;;;;;;29.27;15.50;;;8.60;56.00;;;;;;5073165;28;20409;-77
2021/11/17 08:06:24;;;;;;;32.17;16.05;;;8.60;55.50;;;;;;5068892;28;20435;-77
2021/11/17 08:08:52;;;;;;;33.47;16.67;;;8.60;56.10;;;;;;5061142;28;20385;-78
2021/11/17 08:11:18;;;;;;;35.13;16.90;;;8.50;57.40;;;;;;5061710;28;20378;-79
2021/11/17 08:13:44;;;;;;;32.65;15.70;;;8.50;58.00;;;;;;5044026;28;20381;-78
2021/11/17 08:16:11;;;;;;;28.48;15.13;;;8.50;57.80;;;;;;5074319;28;20397;-77
2021/11/17 08:18:39;;;;;;;29.30;15.20;;;8.60;55.30;;;;;;5057115;28;20455;-77
2021/11/17 08:21:05;;;;;;;27.48;14.60;;;8.60;55.60;;;;;;5054521;28;20390;-80
2021/11/17 08:23:30;;;;;;;32.42;17.05;;;8.50;55.40;;;;;;5033347;28;20399;-78
2021/11/17 08:25:56;;;;;;;29.13;15.77;;;8.50;56.40;;;;;;5058071;28;20738;-78
2021/11/17 08:28:22;;;;;;;34.80;15.30;;;8.40;57.20;;;;;;5044687;28;20420;-77
2021/11/17 08:30:48;;;;;;;29.55;15.35;;;8.50;57.40;;;;;;5048249;28;20761;-77
2021/11/17 08:33:14;;;;;;;27.65;14.60;;;8.50;57.10;;;;;;5068611;28;20397;-76
2021/11/17 08:35:41;;;;;;;35.92;15.00;;;8.60;56.60;;;;;;5049388;28;20405;-76
2021/11/17 08:38:11;;;;;;;33.13;16.15;;;8.60;56.00;;;;;;5035606;28;20390;-75
2021/11/17 08:40:40;;;;;;;30.88;15.60;;;8.60;55.40;;;;;;5060600;28;20385;-75
2021/11/17 08:43:07;;;;;;;33.38;15.52;;;8.60;55.90;;;;;;5069760;28;20758;-74
2021/11/17 08:45:33;;;;;;;34.30;16.10;;;8.50;57.00;;;;;;5044661;28;20405;-76
2021/11/17 08:47:59;;;;;;;33.40;16.70;;;8.50;57.00;;;;;;5054160;28;20393;-76
2021/11/17 08:50:28;;;;;;;28.57;14.00;;;8.50;57.80;;;;;;5035917;28;20914;-75
2021/11/17 08:52:55;;;;;;;31.58;15.63;;;8.60;56.10;;;;;;5038235;28;20447;-76
2021/11/17 08:55:23;;;;;;;28.80;14.95;;;8.60;55.60;;;;;;5057180;28;20469;-76
2021/11/17 08:57:49;;;;;;;30.57;14.73;;;8.70;54.80;;;;;;5062158;28;20910;-77
2021/11/17 09:00:17;;;;;;;28.95;15.43;;;8.60;55.00;;;;;;5038237;28;20412;-78
2021/11/17 09:02:44;;;;;;;33.97;15.38;;;8.60;55.50;;;;;;5045221;28;20389;-77
2021/11/17 09:05:18;;;;;;;28.33;15.53;;;8.60;55.70;;;;;;5055063;28;21038;-77
2021/11/17 09:07:45;;;;;;;25.98;14.43;;;8.70;55.40;;;;;;5034290;28;20394;-76
2021/11/17 09:10:17;;;;;;;30.02;14.70;;;8.70;54.20;;;;;;5052031;28;20897;-76
2021/11/17 09:12:43;;;;;;;30.42;15.00;;;8.70;55.00;;;;;;5062853;28;20397;-76
2021/11/17 09:15:11;;;;;;;31.08;14.80;;;8.70;55.00;;;;;;5055712;28;20897;-77
2021/11/17 09:17:38;;;;;;;33.45;14.93;;;8.70;54.80;;;;;;5054025;28;20393;-77
2021/11/17 09:20:06;;;;;;;30.20;15.77;;;8.70;55.20;;;;;;5049482;28;20894;-79
2021/11/17 09:22:31;;;;;;;28.65;14.93;;;8.70;54.20;;;;;;5071533;28;20411;-79
2021/11/17 09:24:58;;;;;;;27.00;14.63;;;8.80;54.00;;;;;;5037869;28;20667;-79
2021/11/17 09:27:24;;;;;;;30.67;15.85;;;8.80;53.60;;;;;;5030432;28;20396;-78
2021/11/17 09:29:50;;;;;;;28.70;15.00;;;8.70;54.60;;;;;;5039409;28;20467;-78
2021/11/17 09:32:15;;;;;;;30.02;15.25;;;8.80;53.90;;;;;;5059779;28;20400;-78
2021/11/17 09:34:42;;;;;;;32.03;15.60;;;8.80;53.80;;;;;;5055169;28;20432;-79
2021/11/17 09:37:08;;;;;;;31.05;14.50;;;8.80;53.60;;;;;;5047367;28;20408;-79
2021/11/17 09:39:35;;;;;;;30.33;15.60;;;8.90;53.60;;;;;;5051517;28;20405;-76
2021/11/17 09:42:02;;;;;;;33.53;15.93;;;8.90;52.80;;;;;;5044844;28;20469;-74
2021/11/17 09:44:32;;;;;;;33.00;16.55;;;9.00;53.50;;;;;;5032360;28;20415;-77
2021/11/17 09:47:03;;;;;;;30.60;15.43;;;9.00;53.20;;;;;;5047584;28;20453;-75
2021/11/17 09:49:36;;;;;;;33.45;16.13;;;9.00;52.40;;;;;;5051497;28;20398;-76
2021/11/17 09:52:07;;;;;;;34.92;16.42;;;9.10;53.10;;;;;;5024853;28;20876;-76
2021/11/17 09:54:50;;;;;;;29.80;15.37;;;9.10;52.80;;;;;;5050914;28;20428;-76
2021/11/17 09:57:28;;;;;;;30.70;15.02;;;9.20;52.20;;;;;;5045222;28;20467;-78
2021/11/17 10:00:10;;;;;;;28.77;14.85;;;9.20;51.70;;;;;;5033180;28;20730;-77
2021/11/17 10:02:48;;;;;;;28.23;15.00;;;9.20;52.30;;;;;;5037677;28;20558;-74
2021/11/17 10:05:21;;;;;;;30.63;15.68;;;9.20;51.90;;;;;;5047953;28;20478;-74
2021/11/17 10:13:11;;;;;;;28.40;15.50;;;9.20;51.90;;;;;;5060689;28;20455;-74
2021/11/17 10:15:40;;;;;;;28.17;14.90;;;9.10;52.50;;;;;;5051490;28;20487;-75
2021/11/17 10:18:18;;;;;;;29.75;14.80;;;9.10;52.80;;;;;;5043356;28;20924;-75
2021/11/17 10:20:47;;;;;;;27.67;14.90;;;9.20;51.80;;;;;;5074305;28;20880;-77
2021/11/17 10:23:21;;;;;;;28.25;14.05;;;9.20;51.50;;;;;;5054461;28;20735;-75
2021/11/17 10:25:46;;;;;;;27.30;13.55;;;9.30;51.60;;;;;;5050988;28;20948;-76
2021/11/17 10:28:19;;;;;;;31.10;15.35;;;9.40;51.00;;;;;;5052347;28;20393;-74
2021/11/17 10:31:11;;;;;;;25.70;14.27;;;9.40;50.90;;;;;;5042791;28;20460;-77
2021/11/17 10:34:05;;;;;;;32.03;14.88;;;9.50;51.20;;;;;;5036531;28;20410;-76
2021/11/17 10:37:11;;;;;;;27.60;14.10;;;9.50;50.20;;;;;;5057507;28;20433;-75
2021/11/17 10:39:39;;;;;;;25.52;13.50;;;9.50;50.00;;;;;;5027756;28;20412;-75
2021/11/17 10:42:20;;;;;;;33.88;15.25;;;9.50;50.30;;;;;;5053516;28;20461;-77
2021/11/17 10:44:55;;;;;;;27.93;14.00;;;9.50;50.60;;;;;;5046399;28;20409;-76
2021/11/17 10:47:26;;;;;;;28.10;14.18;;;9.40;50.90;;;;;;5043595;28;20389;-78
2021/11/17 10:50:04;;;;;;;29.33;15.13;;;9.40;51.00;;;;;;5052552;28;20398;-76
2021/11/17 10:52:40;;;;;;;26.43;14.03;;;9.40;51.20;;;;;;5036205;28;20401;-77
2021/11/17 10:55:18;;;;;;;31.13;15.38;;;9.50;51.70;;;;;;5058399;28;20393;-76
2021/11/17 10:57:43;;;;;;;28.67;14.57;;;9.50;52.40;;;;;;5055690;28;20378;-76
2021/11/17 11:00:11;;;;;;;29.25;15.18;;;9.50;51.80;;;;;;5049921;28;20397;-77
2021/11/17 11:02:39;;;;;;;32.50;15.50;;;9.40;52.40;;;;;;5032628;28;20887;-76
2021/11/17 11:05:13;;;;;;;35.00;15.88;;;9.50;53.40;;;;;;5053806;28;20500;-76
2021/11/17 11:08:15;;;;;;;30.38;14.38;;;9.50;53.10;;;;;;5051937;28;20382;-75
2021/11/17 11:10:44;;;;;;;29.80;15.60;;;9.50;53.40;;;;;;5019980;28;20400;-77
2021/11/17 11:13:25;;;;;;;31.38;16.33;;;9.60;53.00;;;;;;5052161;28;20432;-78
2021/11/17 11:15:57;;;;;;;31.70;15.70;;;9.70;52.80;;;;;;5048362;28;20524;-77
2021/11/17 11:18:32;;;;;;;29.50;15.77;;;9.70;52.40;;;;;;5027974;28;20416;-78
2021/11/17 11:20:58;;;;;;;33.40;16.90;;;9.70;53.10;;;;;;5058516;28;20899;-76
2021/11/17 11:23:28;;;;;;;31.57;16.70;;;9.70;53.70;;;;;;5053920;28;20483;-76
2021/11/17 11:26:12;;;;;;;35.17;16.60;;;9.70;54.30;;;;;;5049774;28;20530;-75
2021/11/17 11:28:47;;;;;;;41.00;18.88;;;9.70;55.10;;;;;;5039709;28;20397;-75
2021/11/17 11:31:12;;;;;;;39.42;19.02;;;9.80;55.40;;;;;;5038756;28;20394;-76
2021/11/17 11:33:58;;;;;;;40.87;19.53;;;9.80;56.40;;;;;;5044581;28;20394;-76
2021/11/17 11:36:30;;;;;;;43.90;20.10;;;9.90;56.70;;;;;;4997373;28;20395;-76
2021/11/17 11:39:01;;;;;;;39.28;19.88;;;10.00;56.50;;;;;;5067454;28;20389;-75
2021/11/17 11:41:58;;;;;;;38.13;19.77;;;10.10;56.70;;;;;;5073064;28;20449;-77
2021/11/17 11:44:31;;;;;;;44.67;19.30;;;10.00;57.40;;;;;;5041292;28;20416;-77
2021/11/17 11:46:59;;;;;;;36.43;19.47;;;10.10;56.90;;;;;;5042949;28;20437;-75
2021/11/17 11:49:40;;;;;;;47.42;21.40;;;10.10;57.20;;;;;;5051387;28;20446;-77
2021/11/17 11:52:23;;;;;;;45.30;20.88;;;10.10;57.90;;;;;;5038584;28;20393;-76
2021/11/17 11:54:54;;;;;;;45.88;22.75;;;10.10;58.20;;;;;;5066809;28;20459;-74
2021/11/17 11:57:47;;;;;;;53.80;24.23;;;10.10;59.00;;;;;;5078077;28;20873;-76
2021/11/17 12:00:32;;;;;;;51.13;25.02;;;10.00;61.40;;;;;;5056750;28;20389;-75
2021/11/17 12:03:09;;;;;;;57.17;25.58;;;10.00;63.10;;;;;;5046298;28;20393;-76
2021/11/17 12:05:46;;;;;;;66.28;26.13;;;10.00;65.00;;;;;;5034050;28;20721;-76
2021/11/17 12:08:19;;;;;;;59.42;26.85;;;10.00;65.00;;;;;;5047605;28;20435;-77
2021/11/17 12:10:47;;;;;;;66.27;26.23;;;10.00;66.80;;;;;;5059674;28;20490;-77
2021/11/17 12:13:20;;;;;;;66.15;27.90;;;10.00;68.20;;;;;;5045250;28;20425;-78
2021/11/17 12:16:06;;;;;;;58.67;26.60;;;10.10;66.70;;;;;;5050679;28;20408;-75
2021/11/17 12:18:52;;;;;;;71.38;30.45;;;10.10;68.00;;;;;;5055500;28;20401;-79
2021/11/17 12:21:23;;;;;;;67.70;28.83;;;10.10;68.20;;;;;;5056423;28;20401;-77
2021/11/17 12:24:25;;;;;;;63.95;28.10;;;10.00;69.10;;;;;;5057838;28;20409;-77
2021/11/17 12:27:13;;;;;;;74.18;30.40;;;10.10;69.10;;;;;;5054172;28;20393;-77
2021/11/17 12:29:59;;;;;;;67.05;29.27;;;10.00;69.80;;;;;;5054404;28;20885;-79
2021/11/17 12:32:30;;;;;;;64.95;28.02;;;10.00;71.70;;;;;;5055110;28;20969;-77
2021/11/17 12:35:14;;;;;;;72.75;30.30;;;10.00;72.30;;;;;;5036815;28;20797;-75
2021/11/17 12:37:56;;;;;;;68.90;29.58;;;9.90;75.00;;;;;;5050139;28;20387;-77
2021/11/17 12:40:37;;;;;;;70.35;30.00;;;10.00;76.10;;;;;;5044479;28;20391;-77
2021/11/17 12:43:10;;;;;;;81.47;32.60;;;10.00;74.70;;;;;;5057385;28;20403;-76
2021/11/17 12:45:38;;;;;;;68.68;31.00;;;9.90;76.90;;;;;;5060455;28;20409;-76
2021/11/17 12:48:19;;;;;;;70.10;28.45;;;10.00;76.40;;;;;;5056748;28;20403;-77
2021/11/17 12:50:49;;;;;;;73.70;30.80;;;10.00;76.10;;;;;;5055869;28;20443;-78
2021/11/17 12:53:25;;;;;;;70.00;29.05;;;9.90;77.70;;;;;;5054924;28;20871;-78
2021/11/17 12:56:11;;;;;;;69.93;28.60;;;10.00;77.90;;;;;;5056151;28;20393;-76
2021/11/17 12:58:56;;;;;;;62.97;28.43;;;10.00;79.60;;;;;;5044394;28;20401;-77
2021/11/17 13:01:28;;;;;;;68.50;28.83;;;10.00;80.40;;;;;;5031785;28;20409;-78
2021/11/17 13:04:19;;;;;;;62.15;27.15;;;10.00;80.00;;;;;;5057972;28;20397;-77
2021/11/17 13:06:58;;;;;;;62.58;27.15;;;10.10;77.80;;;;;;5061341;28;20416;-76
2021/11/17 13:09:27;;;;;;;74.67;29.03;;;10.10;77.90;;;;;;5062606;28;20718;-78
2021/11/17 13:11:54;;;;;;;68.10;29.33;;;10.10;78.90;;;;;;5052876;28;20420;-76
2021/11/17 13:14:38;;;;;;;69.68;28.85;;;10.10;78.70;;;;;;5047219;28;20477;-76
2021/11/17 13:17:32;;;;;;;76.32;30.65;;;10.10;80.10;;;;;;5050929;28;20464;-77
2021/11/17 13:20:23;;;;;;;77.43;29.80;;;10.10;80.70;;;;;;5049381;28;20915;-75
2021/11/17 13:23:09;;;;;;;70.97;30.70;;;10.20;79.50;;;;;;5066500;28;20421;-79
2021/11/17 13:26:00;;;;;;;83.32;32.38;;;10.10;81.20;;;;;;5034271;28;20405;-77
2021/11/17 13:28:47;;;;;;;89.40;34.58;;;10.10;81.20;;;;;;5047117;28;20567;-75
2021/11/17 13:31:36;;;;;;;76.45;32.28;;;10.20;80.00;;;;;;5060611;28;20389;-75
2021/11/17 13:34:11;;;;;;;83.88;30.00;;;10.20;79.50;;;;;;5051612;28;20432;-76
2021/11/17 13:36:44;;;;;;;76.18;29.85;;;10.30;79.20;;;;;;5053506;28;20723;-77
2021/11/17 13:39:12;;;;;;;77.13;31.20;;;10.30;79.60;;;;;;5051639;28;20393;-76
2021/11/17 13:41:41;;;;;;;76.53;30.50;;;10.20;80.30;;;;;;5051565;28;20393;-76
2021/11/17 13:44:07;;;;;;;78.03;30.00;;;10.20;79.90;;;;;;5063674;28;20395;-76
2021/11/17 13:46:33;;;;;;;81.13;31.10;;;10.20;81.20;;;;;;5054426;28;20389;-77
2021/11/17 13:48:59;;;;;;;83.90;29.95;;;10.10;82.30;;;;;;5040146;28;20894;-77
2021/11/17 13:51:27;;;;;;;76.07;29.88;;;10.10;83.40;;;;;;5043802;28;20448;-77
2021/11/17 13:53:53;;;;;;;81.90;31.00;;;10.10;83.20;;;;;;5050444;28;20410;-76
2021/11/17 13:56:30;;;;;;;82.43;31.43;;;10.20;83.90;;;;;;5048513;28;20413;-75
2021/11/17 13:58:56;;;;;;;84.00;29.58;;;10.20;82.80;;;;;;5050840;28;20403;-75
2021/11/17 14:01:22;;;;;;;91.63;32.90;;;10.20;83.80;;;;;;5047927;28;20420;-77
2021/11/17 14:03:48;;;;;;;90.00;33.25;;;10.30;83.70;;;;;;5061449;28;20394;-77
2021/11/17 14:06:17;;;;;;;86.30;33.20;;;10.30;82.70;;;;;;5052374;28;20412;-76
2021/11/17 14:08:44;;;;;;;87.95;32.08;;;10.30;82.90;;;;;;5052726;28;20412;-76
2021/11/17 14:11:11;;;;;;;90.18;34.00;;;10.40;80.50;;;;;;5054312;28;20408;-77
2021/11/17 14:13:37;;;;;;;94.10;33.35;;;10.40;81.70;;;;;;5061475;28;20394;-76
2021/11/17 14:16:03;;;;;;;91.93;33.08;;;10.40;82.20;;;;;;5064012;28;20764;-76
2021/11/17 14:18:29;;;;;;;103.93;34.25;;;10.40;82.40;;;;;;5041813;28;20414;-75
2021/11/17 14:20:56;;;;;;;95.22;34.45;;;10.30;83.30;;;;;;5057765;28;20404;-77
2021/11/17 14:23:22;;;;;;;89.57;33.70;;;10.30;84.20;;;;;;5051559;28;20423;-76
2021/11/17 14:25:49;;;;;;;89.68;32.10;;;10.30;85.00;;;;;;5058112;28;20412;-76
2021/11/17 14:28:25;;;;;;;83.13;31.50;;;10.30;84.90;;;;;;5054602;28;20909;-77
2021/11/17 14:31:03;;;;;;;89.18;34.22;;;10.20;86.80;;;;;;5050777;28;20418;-77
2021/11/17 14:33:32;;;;;;;97.18;34.90;;;10.30;85.30;;;;;;5042276;28;20754;-77
2021/11/17 14:36:01;;;;;;;94.97;33.72;;;10.30;86.00;;;;;;5052025;28;20882;-76
2021/11/17 14:38:26;;;;;;;101.72;34.83;;;10.30;84.10;;;;;;5057471;28;20408;-77
2021/11/17 14:40:53;;;;;;;99.65;36.55;;;10.30;84.90;;;;;;5062644;28;20392;-78
2021/11/17 14:43:22;;;;;;;98.82;35.40;;;10.30;85.80;;;;;;5068669;28;20453;-77
2021/11/17 14:45:48;;;;;;;93.47;34.53;;;10.30;86.40;;;;;;5048499;28;20442;-78
2021/11/17 14:48:14;;;;;;;97.45;33.95;;;10.30;87.00;;;;;;5049028;28;20985;-76
2021/11/17 14:50:41;;;;;;;101.83;35.30;;;10.30;85.00;;;;;;5054895;28;20424;-76
2021/11/17 14:53:07;;;;;;;95.80;34.63;;;10.30;85.10;;;;;;5055306;28;20408;-77
2021/11/17 14:55:33;;;;;;;100.15;36.42;;;10.30;85.70;;;;;;5060499;28;20401;-78
2021/11/17 14:57:59;;;;;;;93.53;34.65;;;10.30;86.30;;;;;;5054463;28;20433;-79
2021/11/17 15:00:32;;;;;;;93.95;33.80;;;10.30;87.40;;;;;;5059846;28;20724;-77
2021/11/17 15:02:57;;;;;;;85.53;34.20;;;10.40;84.50;;;;;;5043661;28;20391;-78
2021/11/17 15:05:26;;;;;;;91.13;35.33;;;10.40;85.20;;;;;;5049818;28;20414;-79
2021/11/17 15:07:51;;;;;;;91.80;34.30;;;10.30;85.80;;;;;;5054839;28;20376;-78
2021/11/17 15:10:18;;;;;;;99.57;35.67;;;10.30;86.90;;;;;;5059942;28;20439;-75
2021/11/17 15:12:44;;;;;;;98.13;35.75;;;10.30;86.60;;;;;;5066193;28;20401;-77
2021/11/17 15:15:15;;;;;;;99.53;35.40;;;10.30;86.60;;;;;;5062266;28;20397;-78
2021/11/17 15:17:41;;;;;;;97.60;35.22;;;10.40;85.80;;;;;;5037024;28;20397;-77
2021/11/17 15:20:08;;;;;;;97.07;36.10;;;10.40;84.60;;;;;;5037582;28;20424;-77
2021/11/17 15:22:36;;;;;;;99.70;38.28;;;10.40;84.50;;;;;;5030770;28;20411;-75
2021/11/17 15:25:04;;;;;;;99.72;37.20;;;10.40;84.30;;;;;;5033601;28;20859;-76
2021/11/17 15:27:34;;;;;;;108.40;43.65;;;10.40;85.00;;;;;;5049296;28;20397;-74
2021/11/17 15:30:01;;;;;;;105.50;37.83;;;10.40;85.00;;;;;;5049778;28;20476;-75
2021/11/17 15:32:27;;;;;;;110.78;39.92;;;10.30;85.10;;;;;;5049924;28;20389;-75
2021/11/17 15:34:53;;;;;;;140.80;49.72;;;10.40;84.30;;;;;;5030142;28;20399;-76
2021/11/17 15:37:19;;;;;;;96.30;36.97;;;10.40;83.10;;;;;;5049959;28;20455;-75
2021/11/17 15:39:44;;;;;;;90.28;35.92;;;10.30;83.40;;;;;;5045933;28;20407;-74
2021/11/17 15:42:10;;;;;;;94.65;34.15;;;10.20;83.30;;;;;;5046932;28;20836;-75